New Providence, Iowa
Current Conditions -  °F | °C
As of 10:55 AM on Wednesday 22 Oct 2014 (Local Time) from KIFA Reporting Station
Broken Clouds Broken Clouds  
Wind Chill: 44°   Ceiling: 6000
Heat Index: 49°   Visibility: 10mi
Dew Point: 41°   Wind: 13mph
Humidity: 75%   Direction: 140°SE
Pressure: 30.24"   Gusts: 17mph
Location:  42.28°N, 93.17°W
Report Text: KIFA 221555Z AUTO 14011G15KT 10SM BKN060 BKN075 09/05 A3024 RMK AO2 T00930051
Loading
Personal Weather Stations






























Interactive Weather Map
Tropical Storm Tracking
New forecast layout! Learn more

10-Day Weather Forecast

Advertisements
Track Severe Weather on mobile